createdAt,value
2018-03-19T00:01:41.540Z,5.12
2018-03-19T00:04:10.540Z,5.28
2018-03-19T00:06:38.763Z,5.20
2018-03-19T00:09:06.983Z,5.57
2018-03-19T00:11:35.269Z,5.33
2018-03-19T00:14:03.497Z,5.30
2018-03-19T00:16:31.754Z,5.43
2018-03-19T00:18:59.953Z,6.07
2018-03-19T00:21:28.169Z,6.35
2018-03-19T00:23:56.415Z,6.72
2018-03-19T00:26:25.398Z,5.85
2018-03-19T00:28:53.629Z,5.30
2018-03-19T00:31:21.876Z,6.65
2018-03-19T00:33:50.863Z,5.68
2018-03-19T00:36:19.866Z,6.10
2018-03-19T00:38:48.130Z,5.68
2018-03-19T00:41:16.343Z,5.47
2018-03-19T00:43:44.559Z,5.65
2018-03-19T00:46:14.302Z,5.95
2018-03-19T00:48:43.322Z,6.32
2018-03-19T00:51:11.531Z,5.30
2018-03-19T00:53:39.872Z,5.45
2018-03-19T00:56:08.091Z,5.80
2018-03-19T00:58:36.415Z,5.55
2018-03-19T01:01:04.624Z,6.00
2018-03-19T01:03:32.842Z,5.95
2018-03-19T01:06:01.086Z,5.77
2018-03-19T01:08:29.295Z,5.75
2018-03-19T01:10:58.309Z,6.05
2018-03-19T01:13:26.588Z,5.78
2018-03-19T01:15:54.824Z,5.78
2018-03-19T01:18:23.151Z,6.47
2018-03-19T01:20:51.542Z,6.32
2018-03-19T01:23:19.771Z,5.90
2018-03-19T01:25:48.777Z,6.00
2018-03-19T01:28:16.991Z,5.60
2018-03-19T01:30:45.203Z,6.05
2018-03-19T01:33:13.478Z,5.83
2018-03-19T01:35:41.682Z,5.95
2018-03-19T01:38:10.689Z,5.82
2018-03-19T01:40:38.908Z,5.78
2018-03-19T01:43:07.135Z,5.90
2018-03-19T01:45:35.410Z,6.17
2018-03-19T01:48:03.664Z,6.30
2018-03-19T01:50:32.649Z,5.90
2018-03-19T01:53:00.919Z,5.97
2018-03-19T01:55:29.126Z,5.90
2018-03-19T01:57:57.369Z,5.45
2018-03-19T02:00:25.605Z,6.40
2018-03-19T02:02:53.837Z,6.05
2018-03-19T02:05:22.850Z,5.32
2018-03-19T02:07:51.066Z,5.70
2018-03-19T02:10:19.286Z,6.32
2018-03-19T02:12:48.293Z,5.90
2018-03-19T02:15:16.581Z,6.12
2018-03-19T02:17:44.849Z,5.93
2018-03-19T02:20:13.062Z,5.90
2018-03-19T02:22:41.283Z,6.37
2018-03-19T02:25:10.278Z,6.05
2018-03-19T02:27:39.274Z,5.60
2018-03-19T02:30:08.271Z,5.78
2018-03-19T02:32:37.254Z,6.47
2018-03-19T02:35:06.270Z,5.50
2018-03-19T02:37:34.483Z,5.78
2018-03-19T02:40:02.701Z,5.80
2018-03-19T02:42:31.709Z,6.10
2018-03-19T02:45:00.718Z,5.85
2018-03-19T02:47:28.926Z,6.30
2018-03-19T02:49:57.155Z,5.78
2018-03-19T02:52:25.400Z,5.60
2018-03-19T02:54:53.715Z,5.60
2018-03-19T02:57:21.958Z,5.68
2018-03-19T02:59:50.174Z,5.20
2018-03-19T03:02:18.459Z,5.53
2018-03-19T03:04:46.667Z,5.90
2018-03-19T03:07:14.986Z,6.07
2018-03-19T03:09:43.199Z,5.60
2018-03-19T03:12:11.410Z,5.45
2018-03-19T03:14:39.715Z,5.53
2018-03-19T03:17:07.954Z,5.90
2018-03-19T03:19:36.169Z,5.25
2018-03-19T03:22:04.377Z,5.87
2018-03-19T03:24:32.622Z,5.60
2018-03-19T03:27:00.838Z,5.37
2018-03-19T03:29:29.072Z,5.32
2018-03-19T03:31:57.278Z,5.75
2018-03-19T03:34:25.527Z,5.28
2018-03-19T03:36:53.802Z,5.82
2018-03-19T03:39:22.025Z,5.75
2018-03-19T03:41:50.354Z,5.85
2018-03-19T03:44:18.566Z,5.43
2018-03-19T03:46:46.821Z,5.93
2018-03-19T03:49:15.038Z,5.67
2018-03-19T03:51:43.367Z,5.50
2018-03-19T03:54:11.642Z,5.62
2018-03-19T03:56:39.887Z,5.60
2018-03-19T03:59:08.093Z,5.82
2018-03-19T04:01:36.467Z,5.70
2018-03-19T04:04:04.710Z,7.82
2018-03-19T04:06:33.021Z,6.07
2018-03-19T04:09:01.265Z,5.72
2018-03-19T04:11:29.472Z,5.50
2018-03-19T04:13:57.683Z,5.68
2018-03-19T04:16:25.922Z,5.37
2018-03-19T04:18:54.130Z,5.45
2018-03-19T04:21:22.372Z,5.55
2018-03-19T04:23:51.340Z,6.00
2018-03-19T04:26:19.573Z,5.60
2018-03-19T04:28:47.782Z,5.62
2018-03-19T04:31:16.009Z,5.80
2018-03-19T04:33:44.229Z,5.57
2018-03-19T04:36:12.461Z,5.70
2018-03-19T04:38:40.725Z,6.85
2018-03-19T04:41:08.951Z,6.30
2018-03-19T04:43:37.157Z,6.40
2018-03-19T04:46:06.264Z,5.85
2018-03-19T04:48:34.486Z,5.87
2018-03-19T04:51:02.698Z,5.97
2018-03-19T04:53:31.714Z,6.15
2018-03-19T04:55:59.935Z,6.50
2018-03-19T04:58:28.178Z,5.87
2018-03-19T05:00:56.450Z,7.20
2018-03-19T05:03:24.709Z,6.68
2018-03-19T05:05:52.886Z,6.28
2018-03-19T05:08:21.134Z,6.45
2018-03-19T05:10:49.348Z,5.82
2018-03-19T05:13:17.610Z,6.37
2018-03-19T05:15:45.838Z,6.45
2018-03-19T05:18:14.069Z,6.87
2018-03-19T05:20:42.289Z,7.28
2018-03-19T05:23:10.527Z,7.43
2018-03-19T05:25:38.796Z,6.80
2018-03-19T05:28:07.075Z,7.30
2018-03-19T05:30:35.359Z,6.87
2018-03-19T05:33:04.330Z,6.82
2018-03-19T05:35:33.325Z,6.78
2018-03-19T05:38:02.322Z,6.53
2018-03-19T05:40:30.547Z,7.07
2018-03-19T05:42:58.785Z,6.80
2018-03-19T05:45:27.035Z,7.00
2018-03-19T05:47:56.026Z,7.30
2018-03-19T05:50:25.010Z,7.00
2018-03-19T05:52:53.255Z,7.90
2018-03-19T05:55:21.697Z,6.90
2018-03-19T05:57:49.863Z,7.10
2018-03-19T06:00:18.062Z,7.22
2018-03-19T06:02:46.315Z,9.38
2018-03-19T06:05:14.543Z,7.20
2018-03-19T06:07:42.777Z,6.70
2018-03-19T06:10:11.766Z,6.72
2018-03-19T06:12:40.027Z,6.97
2018-03-19T06:15:08.219Z,7.07
2018-03-19T06:17:36.507Z,6.00
2018-03-19T06:20:04.714Z,7.03
2018-03-19T06:22:33.046Z,7.37
2018-03-19T06:25:01.300Z,7.05
2018-03-19T06:27:29.518Z,7.43
2018-03-19T06:29:57.761Z,7.30
2018-03-19T06:32:26.766Z,6.70
2018-03-19T06:34:55.044Z,6.93
2018-03-19T06:37:23.334Z,7.20
2018-03-19T06:39:51.609Z,7.33
2018-03-19T06:42:19.830Z,6.53
2018-03-19T06:44:48.074Z,7.18
2018-03-19T06:47:16.359Z,6.57
2018-03-19T06:49:45.374Z,6.97
2018-03-19T06:52:13.555Z,7.57
2018-03-19T06:54:41.845Z,7.32
2018-03-19T06:57:10.030Z,7.53
2018-03-19T06:59:39.056Z,6.80
2018-03-19T07:02:07.263Z,6.15
2018-03-19T07:04:35.522Z,6.45
2018-03-19T07:07:03.735Z,6.70
2018-03-19T07:09:31.972Z,5.70
2018-03-19T07:12:00.234Z,6.22
2018-03-19T07:14:28.518Z,6.07
2018-03-19T07:16:56.740Z,5.70
2018-03-19T07:19:24.982Z,5.82
2018-03-19T07:21:53.229Z,6.10
2018-03-19T07:24:21.459Z,6.00
2018-03-19T07:26:49.699Z,5.80
2018-03-19T07:29:17.934Z,5.77
2018-03-19T07:31:46.947Z,6.07
2018-03-19T07:34:15.164Z,5.90
2018-03-19T07:36:43.407Z,5.82
2018-03-19T07:39:11.674Z,6.37
2018-03-19T07:41:39.914Z,5.78
2018-03-19T07:44:08.131Z,5.62
2018-03-19T07:46:36.369Z,6.22
2018-03-19T07:49:04.578Z,5.63
2018-03-19T07:51:32.820Z,5.90
2018-03-19T07:54:02.548Z,5.53
2018-03-19T07:56:31.566Z,5.93
2018-03-19T07:58:59.769Z,6.20
2018-03-19T08:01:27.985Z,6.07
2018-03-19T08:03:56.227Z,5.87
2018-03-19T08:06:24.439Z,5.90
2018-03-19T08:08:53.463Z,5.10
2018-03-19T08:11:21.696Z,5.57
2018-03-19T08:13:49.951Z,5.40
2018-03-19T08:16:18.185Z,5.35
2018-03-19T08:18:46.399Z,5.50
2018-03-19T08:21:14.638Z,5.60
2018-03-19T08:23:42.890Z,4.87
2018-03-19T08:26:11.920Z,5.30
2018-03-19T08:28:40.172Z,4.32
2018-03-19T08:31:09.141Z,4.60
2018-03-19T08:33:37.352Z,4.62
2018-03-19T08:36:05.629Z,4.55
2018-03-19T08:38:34.590Z,5.47
2018-03-19T08:41:03.637Z,4.57
2018-03-19T08:43:31.856Z,4.20
2018-03-19T08:46:00.166Z,4.15
2018-03-19T08:48:28.383Z,4.22
2018-03-19T08:50:56.630Z,4.15
2018-03-19T08:53:24.868Z,4.05
2018-03-19T08:55:53.078Z,4.20
2018-03-19T08:58:21.314Z,4.03
2018-03-19T09:00:49.528Z,3.90
2018-03-19T09:03:17.766Z,3.60
2018-03-19T09:05:45.985Z,3.47
2018-03-19T09:08:14.222Z,3.50
2018-03-19T09:10:43.243Z,3.40
2018-03-19T09:13:11.482Z,3.87
2018-03-19T09:15:39.727Z,3.33
2018-03-19T09:18:07.959Z,3.40
2018-03-19T09:20:36.965Z,3.72
2018-03-19T09:23:05.208Z,3.40
2018-03-19T09:25:33.436Z,3.62
2018-03-19T09:28:01.669Z,3.33
2018-03-19T09:30:30.675Z,3.75
2018-03-19T09:32:59.663Z,3.73
2018-03-19T09:35:28.676Z,3.17
2018-03-19T09:37:56.900Z,3.40
2018-03-19T09:40:25.226Z,3.58
2018-03-19T09:42:53.438Z,3.40
2018-03-19T09:45:21.653Z,3.97
2018-03-19T09:47:50.650Z,3.60
2018-03-19T09:50:19.654Z,3.20
2018-03-19T09:52:47.891Z,9.07
2018-03-19T09:55:17.029Z,5.47
2018-03-19T09:57:45.319Z,3.70
2018-03-19T10:00:13.534Z,3.65
2018-03-19T10:02:41.769Z,3.65
2018-03-19T10:05:10.019Z,3.58
2018-03-19T10:07:38.994Z,3.55
2018-03-19T10:10:07.240Z,3.42
2018-03-19T10:12:35.486Z,3.47
2018-03-19T10:15:03.774Z,3.40
2018-03-19T10:17:32.008Z,3.60
2018-03-19T10:20:00.243Z,3.87
2018-03-19T10:22:28.595Z,3.75
2018-03-19T10:24:56.819Z,3.70
2018-03-19T10:27:25.033Z,3.70
2018-03-19T10:29:54.037Z,3.90
2018-03-19T10:32:22.256Z,3.25
2018-03-19T10:34:50.538Z,3.30
2018-03-19T10:37:18.765Z,3.15
2018-03-19T10:39:46.999Z,2.72
2018-03-19T10:42:15.207Z,3.47
2018-03-19T10:44:43.445Z,3.40
2018-03-19T10:47:11.675Z,4.22
2018-03-19T10:49:39.889Z,3.37
2018-03-19T10:52:08.136Z,3.40
2018-03-19T10:54:36.341Z,4.62
2018-03-19T10:57:04.579Z,3.60
2018-03-19T10:59:32.859Z,6.72
2018-03-19T11:02:06.727Z,5.10
2018-03-19T11:04:34.950Z,4.05
2018-03-19T11:07:08.906Z,3.40
2018-03-19T11:09:37.149Z,3.40
2018-03-19T11:12:05.514Z,2.92
2018-03-19T11:14:33.713Z,3.30
2018-03-19T11:17:02.020Z,3.15
2018-03-19T11:19:30.166Z,3.33
2018-03-19T11:21:58.412Z,3.90
2018-03-19T11:24:26.638Z,4.00
2018-03-19T11:26:54.897Z,3.67
2018-03-19T11:29:23.140Z,3.65
2018-03-19T11:31:51.345Z,3.58
2018-03-19T11:34:19.594Z,3.60
2018-03-19T11:36:47.834Z,3.70
2018-03-19T11:39:16.830Z,3.30
2018-03-19T11:41:45.856Z,3.30
2018-03-19T11:44:14.130Z,3.90
2018-03-19T11:46:42.391Z,4.57
2018-03-19T11:49:10.593Z,5.22
2018-03-19T11:51:38.830Z,6.82
2018-03-19T11:54:07.819Z,5.00
2018-03-19T11:56:36.830Z,4.60
2018-03-19T11:59:05.049Z,6.50
2018-03-19T12:01:33.287Z,5.05
2018-03-19T12:04:01.523Z,4.70
2018-03-19T12:06:29.759Z,8.02
2018-03-19T12:08:57.976Z,4.25
2018-03-19T12:11:26.286Z,5.60
2018-03-19T12:13:54.535Z,5.37
2018-03-19T12:16:23.535Z,4.25
2018-03-19T12:18:52.525Z,4.35
2018-03-19T12:21:20.786Z,4.57
2018-03-19T12:23:48.993Z,4.90
2018-03-19T12:26:17.278Z,4.50
2018-03-19T12:28:45.514Z,4.28
2018-03-19T12:31:13.827Z,4.70
2018-03-19T12:33:42.067Z,4.70
2018-03-19T12:36:10.310Z,5.72
2018-03-19T12:38:38.566Z,4.35
2018-03-19T12:41:06.813Z,4.65
2018-03-19T12:43:35.790Z,3.73
2018-03-19T12:46:04.837Z,3.75
2018-03-19T12:48:33.047Z,3.60
2018-03-19T12:51:01.289Z,3.60
2018-03-19T12:53:29.501Z,3.70
2018-03-19T12:55:57.757Z,3.58
2018-03-19T12:58:25.969Z,3.70
2018-03-19T13:00:54.298Z,3.70
2018-03-19T13:03:22.558Z,3.58
2018-03-19T13:05:50.849Z,4.27
2018-03-19T13:08:19.080Z,3.67
2018-03-19T13:10:47.318Z,4.28
2018-03-19T13:13:15.534Z,10.80
2018-03-19T13:15:44.547Z,5.40
2018-03-19T13:18:12.825Z,3.80
2018-03-19T13:20:41.049Z,3.90
2018-03-19T13:23:09.384Z,4.43
2018-03-19T13:25:37.601Z,4.10
2018-03-19T13:28:05.841Z,3.90
2018-03-19T13:30:34.110Z,3.87
2018-03-19T13:33:02.337Z,3.90
2018-03-19T13:35:30.579Z,4.70
2018-03-19T13:37:58.825Z,3.80
2018-03-19T13:40:27.801Z,4.30
2018-03-19T13:42:56.005Z,4.07
2018-03-19T13:45:24.299Z,3.60
2018-03-19T13:47:52.514Z,4.12
2018-03-19T13:50:20.844Z,3.75
2018-03-19T13:52:49.059Z,4.10
2018-03-19T13:55:17.306Z,4.57
2018-03-19T13:57:45.550Z,4.12
2018-03-19T14:00:14.544Z,3.90
2018-03-19T14:02:43.645Z,4.07
2018-03-19T14:05:12.626Z,3.75
2018-03-19T14:07:41.643Z,4.57
2018-03-19T14:10:09.917Z,4.37
2018-03-19T14:12:38.082Z,4.50
2018-03-19T14:15:06.382Z,3.97
2018-03-19T14:17:34.642Z,4.03
2018-03-19T14:20:02.850Z,4.18
2018-03-19T14:22:31.094Z,4.70
2018-03-19T14:24:59.310Z,4.40
2018-03-19T14:27:27.593Z,4.43
2018-03-19T14:29:55.785Z,4.25
2018-03-19T14:32:24.006Z,4.35
2018-03-19T14:34:52.290Z,4.60
2018-03-19T14:37:20.531Z,4.18
2018-03-19T14:39:49.524Z,4.80
2018-03-19T14:42:18.509Z,4.20
2018-03-19T14:44:47.521Z,5.00
2018-03-19T14:47:16.497Z,4.37
2018-03-19T14:49:45.488Z,4.68
2018-03-19T14:52:13.705Z,4.40
2018-03-19T14:54:42.015Z,3.97
2018-03-19T14:57:10.223Z,5.00
2018-03-19T14:59:39.225Z,5.40
2018-03-19T15:02:07.443Z,4.45
2018-03-19T15:04:35.651Z,4.93
2018-03-19T15:07:03.882Z,4.47
2018-03-19T15:09:32.144Z,4.25
2018-03-19T15:12:00.384Z,4.35
2018-03-19T15:14:28.592Z,4.55
2018-03-19T15:16:56.932Z,4.05
2018-03-19T15:19:25.139Z,4.93
2018-03-19T15:21:53.352Z,4.30
2018-03-19T15:24:21.602Z,4.27
2018-03-19T15:26:49.814Z,4.43
2018-03-19T15:29:18.026Z,4.30
2018-03-19T15:31:47.050Z,4.10
2018-03-19T15:34:15.281Z,4.20
2018-03-19T15:36:43.502Z,4.78
2018-03-19T15:39:11.746Z,5.90
2018-03-19T15:41:40.729Z,5.18
2018-03-19T15:44:09.760Z,4.57
2018-03-19T15:46:38.020Z,5.25
2018-03-19T15:49:07.026Z,5.50
2018-03-19T15:51:35.247Z,4.72
2018-03-19T15:54:03.483Z,6.50
2018-03-19T15:56:31.685Z,4.90
2018-03-19T15:59:00.193Z,5.30
2018-03-19T16:01:28.458Z,5.87
2018-03-19T16:03:56.677Z,5.20
2018-03-19T16:06:25.656Z,5.40
2018-03-19T16:08:54.669Z,9.70
2018-03-19T16:11:22.876Z,5.20
2018-03-19T16:13:51.137Z,5.72
2018-03-19T16:16:19.392Z,5.63
2018-03-19T16:18:47.663Z,5.85
2018-03-19T16:21:16.654Z,5.35
2018-03-19T16:23:45.654Z,4.87
2018-03-19T16:26:14.644Z,5.95
2018-03-19T16:28:43.648Z,5.32
2018-03-19T16:31:12.716Z,5.95
2018-03-19T16:33:40.900Z,4.95
2018-03-19T16:36:09.915Z,6.82
2018-03-19T16:38:38.126Z,4.70
2018-03-19T16:41:06.367Z,6.00
2018-03-19T16:43:34.635Z,7.20
2018-03-19T16:46:02.881Z,9.55
2018-03-19T16:48:31.202Z,6.18
2018-03-19T16:50:59.414Z,6.65
2018-03-19T16:53:27.682Z,5.40
2018-03-19T16:55:55.958Z,6.80
2018-03-19T16:58:24.185Z,5.28
2018-03-19T17:00:53.159Z,4.70
2018-03-19T17:03:21.469Z,6.57
2018-03-19T17:05:49.675Z,5.22
2018-03-19T17:08:18.004Z,5.12
2018-03-19T17:10:47.004Z,4.90
2018-03-19T17:13:15.978Z,4.93
2018-03-19T17:15:44.215Z,5.50
2018-03-19T17:18:12.442Z,5.22
2018-03-19T17:20:40.668Z,4.90
2018-03-19T17:23:08.890Z,5.53
2018-03-19T17:25:37.890Z,5.07
2018-03-19T17:28:06.869Z,5.37
2018-03-19T17:30:35.891Z,5.22
2018-03-19T17:33:04.853Z,5.70
2018-03-19T17:35:33.165Z,6.12
2018-03-19T17:38:01.389Z,5.07
2018-03-19T17:40:29.636Z,5.22
2018-03-19T17:42:57.850Z,5.35
2018-03-19T17:45:26.092Z,5.60
2018-03-19T17:47:54.333Z,5.32
2018-03-19T17:50:22.691Z,5.40
2018-03-19T17:52:50.880Z,5.40
2018-03-19T17:55:19.902Z,5.25
2018-03-19T17:57:48.120Z,4.80
2018-03-19T18:00:17.846Z,5.62
2018-03-19T18:02:46.153Z,5.60
2018-03-19T18:05:14.426Z,5.53
2018-03-19T18:07:42.663Z,6.35
2018-03-19T18:10:10.992Z,6.18
2018-03-19T18:12:39.236Z,6.40
2018-03-19T18:15:08.214Z,6.10
2018-03-19T18:17:36.492Z,6.65
2018-03-19T18:20:04.679Z,6.70
2018-03-19T18:22:33.694Z,6.03
2018-03-19T18:25:02.701Z,6.20
2018-03-19T18:27:30.920Z,5.90
2018-03-19T18:29:59.157Z,6.05
2018-03-19T18:32:27.436Z,6.87
2018-03-19T18:34:55.701Z,9.10
2018-03-19T18:37:23.976Z,7.30
2018-03-19T18:39:52.262Z,6.82
2018-03-19T18:42:20.489Z,6.77
2018-03-19T18:44:49.728Z,7.60
2018-03-19T18:47:17.962Z,7.20
2018-03-19T18:49:46.173Z,7.15
2018-03-19T18:52:14.464Z,7.70
2018-03-19T18:54:42.687Z,9.13
2018-03-19T18:57:10.943Z,8.13
2018-03-19T18:59:39.164Z,8.20
2018-03-19T19:02:08.173Z,8.15
2018-03-19T19:04:36.407Z,8.48
2018-03-19T19:07:04.791Z,8.30
2018-03-19T19:09:33.109Z,7.95
2018-03-19T19:12:01.394Z,8.50
2018-03-19T19:14:29.630Z,9.73
2018-03-19T19:16:58.654Z,8.88
2018-03-19T19:19:26.881Z,8.97
2018-03-19T19:21:55.119Z,9.52
2018-03-19T19:24:23.373Z,9.93
2018-03-19T19:26:51.659Z,10.40
2018-03-19T19:29:19.895Z,9.52
2018-03-19T19:31:48.127Z,10.93
2018-03-19T19:34:16.385Z,10.80
2018-03-19T19:36:44.625Z,10.80
2018-03-19T19:39:12.859Z,10.30
2018-03-19T19:41:41.079Z,11.68
2018-03-19T19:44:09.330Z,12.98
2018-03-19T19:46:37.552Z,13.20
2018-03-19T19:49:05.857Z,14.35
2018-03-19T19:51:34.106Z,14.57
2018-03-19T19:54:02.341Z,15.05
2018-03-19T19:56:30.561Z,14.25
2018-03-19T19:58:58.801Z,14.23
2018-03-19T20:01:27.069Z,14.63
2018-03-19T20:03:55.265Z,14.90
2018-03-19T20:06:23.554Z,15.45
2018-03-19T20:08:51.758Z,15.07
2018-03-19T20:11:20.009Z,14.57
2018-03-19T20:13:49.052Z,14.38
2018-03-19T20:16:17.259Z,14.32
2018-03-19T20:18:45.499Z,16.05
2018-03-19T20:21:13.729Z,14.13
2018-03-19T20:23:42.728Z,13.98
2018-03-19T20:26:10.989Z,13.60
2018-03-19T20:28:39.978Z,13.43
2018-03-19T20:31:08.982Z,12.95
2018-03-19T20:33:38.008Z,13.80
2018-03-19T20:36:06.222Z,13.57
2018-03-19T20:38:34.446Z,13.10
2018-03-19T20:41:02.700Z,12.55
2018-03-19T20:43:31.708Z,12.65
2018-03-19T20:46:00.711Z,13.35
2018-03-19T20:48:28.986Z,14.13
2018-03-19T20:50:57.231Z,13.35
2018-03-19T20:53:26.228Z,11.70
2018-03-19T20:55:55.243Z,15.00
2018-03-19T20:58:23.465Z,11.07
2018-03-19T21:00:51.733Z,13.10
2018-03-19T21:03:19.946Z,13.05
2018-03-19T21:05:48.169Z,12.27
2018-03-19T21:08:16.417Z,11.90
2018-03-19T21:10:46.161Z,12.25
2018-03-19T21:13:14.418Z,11.27
2018-03-19T21:15:42.655Z,12.20
2018-03-19T21:18:10.969Z,12.37
2018-03-19T21:20:39.200Z,11.70
2018-03-19T21:23:07.530Z,12.10
2018-03-19T21:25:35.774Z,13.80
2018-03-19T21:28:04.804Z,16.85
2018-03-19T21:30:33.057Z,15.07
2018-03-19T21:33:02.079Z,12.85
2018-03-19T21:35:30.326Z,14.52
2018-03-19T21:37:59.336Z,12.85
2018-03-19T21:40:27.597Z,13.07
2018-03-19T21:42:56.610Z,13.00
2018-03-19T21:45:24.873Z,12.98
2018-03-19T21:47:53.853Z,13.57
2018-03-19T21:50:22.860Z,13.85
2018-03-19T21:52:51.107Z,13.10
2018-03-19T21:55:19.321Z,12.73
2018-03-19T21:57:47.566Z,12.00
2018-03-19T22:00:16.561Z,12.35
2018-03-19T22:02:44.835Z,12.73
2018-03-19T22:05:13.841Z,12.30
2018-03-19T22:07:42.093Z,13.45
2018-03-19T22:10:10.434Z,12.98
2018-03-19T22:12:38.667Z,12.90
2018-03-19T22:15:06.932Z,12.65
2018-03-19T22:17:35.243Z,12.95
2018-03-19T22:20:04.374Z,12.55
2018-03-19T22:22:32.610Z,13.00
2018-03-19T22:25:00.889Z,11.98
2018-03-19T22:27:29.136Z,12.57
2018-03-19T22:29:57.358Z,12.83
2018-03-19T22:32:25.606Z,12.52
2018-03-19T22:34:54.654Z,12.65
2018-03-19T22:37:22.897Z,12.30
2018-03-19T22:39:51.126Z,12.07
2018-03-19T22:42:19.448Z,11.13
2018-03-19T22:44:47.707Z,10.82
2018-03-19T22:47:16.694Z,10.48
2018-03-19T22:49:45.709Z,10.35
2018-03-19T22:52:13.953Z,11.60
2018-03-19T22:54:42.965Z,11.55
2018-03-19T22:57:11.205Z,11.18
2018-03-19T22:59:39.438Z,11.18
2018-03-19T23:02:07.709Z,11.23
2018-03-19T23:04:47.933Z,11.90
2018-03-19T23:07:16.146Z,11.43
2018-03-19T23:09:44.366Z,11.30
2018-03-19T23:12:12.617Z,10.90
2018-03-19T23:14:40.858Z,11.52
2018-03-19T23:17:09.117Z,11.68
2018-03-19T23:19:38.104Z,10.95
2018-03-19T23:22:06.323Z,10.52
2018-03-19T23:24:34.578Z,11.43
2018-03-19T23:27:03.584Z,11.47
2018-03-19T23:29:31.833Z,11.63
2018-03-19T23:32:00.825Z,12.45
2018-03-19T23:34:29.837Z,11.30
2018-03-19T23:36:58.087Z,11.10
2018-03-19T23:39:26.350Z,10.70
2018-03-19T23:41:54.582Z,11.27
2018-03-19T23:44:22.814Z,11.18
2018-03-19T23:46:51.065Z,12.02
2018-03-19T23:49:19.298Z,11.70
2018-03-19T23:51:47.554Z,11.12
2018-03-19T23:54:27.445Z,11.45
2018-03-19T23:56:55.682Z,11.43
2018-03-19T23:59:24.725Z,10.73
